Terrell, TX (75160)

7:45 PM CDT on August 30, 2015 (GMT -0500)
APRSWXNET | | Change Station
CLOSE
Current Station
Personal Weather Station
Location: Terrell, TX
Elevation: 505 ft
Nearby Weather Stations

Elev 505 ft 32.80 °N, 96.30 °W | Updated 17 minutes ago

Mostly Cloudy
Mostly Cloudy
87 °F
Feels Like 91 °F
N
5
Wind Variable Wind from SE
Gusts 14.0 mph

Today
High -- | Low -- °F
--% Chance of Precip.
Yesterday
High -- | Low -- °F
Precip. -- in
6:58 AM 7:52 PM
Full, 98% visible
Pressure 29.92 in
Visibility 10.0 miles
Clouds Mostly Cloudy 11000 ft
Heat Index 91 °F
Dew Point 69 °F
Humidity 55%
Rainfall in
Snow Depth Not available.
UV 0 out of 12
Pollen 8.70 out of 12
Air Quality Not available.
Flu Activity Not available.
METAR KTRL 302353Z AUTO 16009KT 10SM BKN110 32/19 A2994 RMK AO2 SLP131 T03170189 10356 20317 55003
Pressure 29.92 in
Visibility 10.0 miles
Clouds Mostly Cloudy 11000 ft
Heat Index 91 °F
Dew Point 69 °F
Humidity 55%
Rainfall in
Snow Depth Not available.
UV 0 out of 12
Pollen 8.70 out of 12
Air Quality Not available.
Flu Activity Not available.
METAR KTRL 302353Z AUTO 16009KT 10SM BKN110 32/19 A2994 RMK AO2 SLP131 T03170189 10356 20317 55003
Nowcast | as of 6:13 PM CDT on August 30, 2015

Isolated thunderstorms are possible generally along and south of I-30...and east of I-35...through the evening hours. At 6 PM...the strongest storms were located east of The Temple area and were moving little. Brief heavy rain and gusty winds can be expected in the stronger storms.

×

10-Day Weather Forecast

×

Almanac

Astronomy

Aug. 30, 2015 Rise Set
Actual Time
Civil Twilight
Nautical Twilight
Astronomical Twilight
Moon
Length of Visible Light
Length of Day
Tomorrow will be .
, % of the Moon is Illuminated

Today's Extremes

State Highs State Lows

Community

WunderPhotos

Upload Photos

1,851,116 photos uploaded!

WunderBlogs® & News

Nearby

Air Quality

  Air Quality AQ Index Pollutant
Not available.

Snow Depth

Station Depth Elevation

Earthquake Activity

City Distance Mag. Time & Date
Minimum magnitude displayed is 2.5.

Coastal Water Temperatures

Place Temperature

Stations

Nearby Weather Stations

Station Location Temp. Windchill Dew Point Humidity Wind Precip. Elev Updated Type